CWA weather

Central Wisconsin Airport
Mosinee, Wisconsin, United States

Public forecast

Using degrees Fahrenheit for public forecast. Weather courtesy of forecast.io.

Current aviation weather report (METAR) for Central Wisconsin Airport

Retrieved 2020/02/24 19:50 UTC (40 minutes ago):

KCWA 241950Z 00000KT 10SM SCT180 04/M07 A2991

Aviation forecast (TAF) for Central Wisconsin Airport

Retrieved 2020/02/24 18:22 UTC (2 hours ago):

TAF KCWA 241720Z 2418/2518 03004KT P6SM FEW180 FM250400 04007KT P6SM BKN100 FM250900 03010KT P6SM OVC030 FM251400 03010G18KT P6SM OVC020